Saint-Francois-Du-Lac, Canada
Current Conditions -  °F | °C
As of 4:00 AM on Thursday 23 Oct 2014 (Local Time) from CYRQ Reporting Station
Overcast Overcast  
Wind Chill: 36°   Ceiling: 9000
Heat Index: 43°   Visibility: 9mi
Dew Point: 32°   Wind: 13mph
Humidity: 66%   Direction: 30°NNE
Pressure: 30.18"   Gusts: NA
Location:  46.07°N, 72.83°W
Report Text: CYRQ 230800Z AUTO 03011KT 9SM OVC090 06/00 A3018 RMK SLP222
Loading
Personal Weather Stations






























Interactive Weather Map
Tropical Storm Tracking
New forecast layout! Learn more

10-Day Weather Forecast

Advertisements
Track Severe Weather on mobile